Time;durP1;ratioP1;P1;durP2;ratioP2;P2;SDS_P1;SDS_P2;PMS_P1;PMS_P2;Temp;Humidity;BMP_temperature;BMP_pressure;BME280_temperature;BME280_humidity;BME280_pressure;Samples;Min_cycle;Max_cycle;Signal;HPM_P1;HPM_P2
2023/10/28 00:02:00;;;;;;;4.53;1.10;;;9.70;99.90;;;;;;482485;246;28130;-72
2023/10/28 00:04:02;;;;;;;1.10;1.00;;;9.70;99.90;;;;;;482504;246;27920;-71
2023/10/28 00:06:02;;;;;;;0.80;0.80;;;9.70;99.90;;;;;;482479;246;27908;-72
2023/10/28 00:08:03;;;;;;;1.67;1.00;;;9.60;99.90;;;;;;482484;246;27914;-73
2023/10/28 00:10:07;;;;;;;0.83;0.83;;;9.60;99.90;;;;;;482504;246;27981;-72
2023/10/28 00:12:08;;;;;;;5.17;0.90;;;9.60;99.90;;;;;;482380;246;27948;-72
2023/10/28 00:14:07;;;;;;;1.07;0.97;;;9.60;99.90;;;;;;482415;246;28021;-72
2023/10/28 00:16:08;;;;;;;0.80;0.80;;;9.60;99.90;;;;;;482259;246;27957;-72
2023/10/28 00:18:10;;;;;;;1.00;1.00;;;9.60;99.90;;;;;;482443;246;28030;-72
2023/10/28 00:20:13;;;;;;;0.80;0.80;;;9.50;99.90;;;;;;482413;246;27867;-71
2023/10/28 00:22:16;;;;;;;0.90;0.90;;;9.50;99.90;;;;;;482500;246;27995;-71
2023/10/28 00:24:15;;;;;;;1.27;0.80;;;9.50;99.90;;;;;;482324;246;27928;-73
2023/10/28 00:26:16;;;;;;;1.33;1.23;;;9.50;99.90;;;;;;482438;246;27874;-72
2023/10/28 00:28:17;;;;;;;1.10;1.10;;;9.40;99.90;;;;;;482432;246;27800;-72
2023/10/28 00:30:21;;;;;;;2.00;1.13;;;9.40;99.90;;;;;;482438;246;27885;-71
2023/10/28 00:32:23;;;;;;;9.63;1.57;;;9.40;99.90;;;;;;482409;246;28583;-71
2023/10/28 00:34:25;;;;;;;0.80;0.80;;;9.40;99.90;;;;;;482469;246;27850;-71
2023/10/28 00:36:26;;;;;;;2.53;0.87;;;9.40;99.90;;;;;;482460;246;27867;-72
2023/10/28 00:38:28;;;;;;;1.57;1.00;;;9.30;99.90;;;;;;482442;246;27678;-72
2023/10/28 00:40:31;;;;;;;1.23;1.13;;;9.30;99.90;;;;;;482424;246;27762;-71
2023/10/28 00:42:35;;;;;;;1.27;1.10;;;9.30;99.90;;;;;;482454;246;28336;-72
2023/10/28 00:44:34;;;;;;;2.10;1.10;;;9.40;99.90;;;;;;482300;246;27781;-73
2023/10/28 00:46:35;;;;;;;1.23;1.03;;;9.30;99.90;;;;;;482389;246;27977;-72
2023/10/28 00:48:37;;;;;;;1.00;1.00;;;9.30;99.90;;;;;;482372;246;27914;-72
2023/10/28 00:50:38;;;;;;;1.43;1.40;;;9.30;99.90;;;;;;482435;246;27533;-72
2023/10/28 00:52:39;;;;;;;2.53;1.10;;;9.30;99.90;;;;;;482441;244;27844;-72
2023/10/28 00:54:40;;;;;;;2.13;1.40;;;9.30;99.90;;;;;;482421;246;27543;-72
2023/10/28 00:56:41;;;;;;;7.90;3.50;;;9.30;99.90;;;;;;482460;246;27881;-71
2023/10/28 00:58:43;;;;;;;6.20;4.57;;;9.30;99.90;;;;;;482463;246;27984;-72
2023/10/28 01:00:44;;;;;;;4.87;2.27;;;9.20;99.90;;;;;;482448;246;28266;-73
2023/10/28 01:02:45;;;;;;;9.10;8.20;;;9.20;99.90;;;;;;482451;246;27630;-72
2023/10/28 01:04:46;;;;;;;7.27;4.53;;;9.20;99.90;;;;;;482493;246;27988;-72
2023/10/28 01:06:48;;;;;;;3.57;3.27;;;9.20;99.90;;;;;;482472;246;27868;-71
2023/10/28 01:08:49;;;;;;;6.07;5.53;;;9.20;99.90;;;;;;482479;246;28065;-72
2023/10/28 01:10:50;;;;;;;7.63;6.93;;;9.30;99.90;;;;;;482423;246;27921;-72
2023/10/28 01:12:51;;;;;;;3.13;2.97;;;9.20;99.90;;;;;;482412;246;28337;-71
2023/10/28 01:14:53;;;;;;;5.33;2.63;;;9.30;99.90;;;;;;482467;246;28408;-72
2023/10/28 01:16:54;;;;;;;4.60;4.20;;;9.20;99.90;;;;;;482470;246;29046;-71
2023/10/28 01:18:55;;;;;;;7.43;4.33;;;9.20;99.90;;;;;;482399;246;28276;-72
2023/10/28 01:20:58;;;;;;;3.23;2.97;;;9.20;99.90;;;;;;482498;246;28365;-72
2023/10/28 01:22:59;;;;;;;7.30;6.70;;;9.30;99.90;;;;;;482502;246;27994;-71
2023/10/28 01:25:00;;;;;;;5.90;2.97;;;9.20;99.90;;;;;;482478;246;27634;-73
2023/10/28 01:27:02;;;;;;;5.73;4.00;;;9.10;99.90;;;;;;482498;246;27852;-72
2023/10/28 01:29:03;;;;;;;3.70;2.80;;;9.10;99.90;;;;;;482478;246;28264;-72
2023/10/28 01:31:04;;;;;;;4.63;2.47;;;9.00;99.90;;;;;;482425;246;29254;-72
2023/10/28 01:33:05;;;;;;;3.20;1.80;;;9.00;99.90;;;;;;482434;246;28427;-71
2023/10/28 01:35:07;;;;;;;4.13;1.27;;;9.00;99.90;;;;;;482432;246;28497;-71
2023/10/28 01:37:08;;;;;;;1.90;1.40;;;8.90;99.90;;;;;;482457;246;28403;-71
2023/10/28 01:39:09;;;;;;;2.63;1.40;;;9.00;99.90;;;;;;482448;246;28478;-72
2023/10/28 01:41:13;;;;;;;3.13;1.40;;;9.00;99.90;;;;;;482440;246;27901;-73
2023/10/28 01:43:14;;;;;;;3.50;1.67;;;9.10;99.90;;;;;;482410;246;27605;-71
2023/10/28 01:45:15;;;;;;;11.77;1.87;;;9.10;99.90;;;;;;482415;246;27839;-72
2023/10/28 01:47:17;;;;;;;1.97;1.87;;;9.10;99.90;;;;;;482436;246;28016;-73
2023/10/28 01:49:19;;;;;;;3.37;1.37;;;9.10;99.90;;;;;;482415;246;28382;-72
2023/10/28 01:51:19;;;;;;;2.43;1.40;;;9.10;99.90;;;;;;482392;246;28458;-72
2023/10/28 01:53:20;;;;;;;2.10;1.37;;;9.10;99.90;;;;;;482418;246;28475;-71
2023/10/28 01:55:22;;;;;;;1.30;1.30;;;9.20;99.90;;;;;;482450;246;28446;-72
2023/10/28 01:57:23;;;;;;;2.90;1.70;;;9.20;99.90;;;;;;482435;246;28307;-73
2023/10/28 01:59:24;;;;;;;2.50;1.30;;;9.20;99.90;;;;;;482431;246;27915;-71
2023/10/28 02:01:25;;;;;;;2.33;1.30;;;9.20;99.90;;;;;;482434;246;27653;-71
2023/10/28 02:03:27;;;;;;;4.20;1.60;;;9.20;99.90;;;;;;482443;246;27897;-71
2023/10/28 02:05:28;;;;;;;1.70;1.60;;;9.20;99.90;;;;;;482438;246;27662;-71
2023/10/28 02:07:29;;;;;;;3.73;1.90;;;9.20;99.90;;;;;;482420;246;27926;-73
2023/10/28 02:09:33;;;;;;;2.80;1.70;;;9.20;99.90;;;;;;482482;246;27910;-71
2023/10/28 02:11:32;;;;;;;7.23;2.20;;;9.30;99.90;;;;;;482321;246;27996;-71
2023/10/28 02:13:33;;;;;;;3.67;2.33;;;9.30;99.90;;;;;;482489;246;27641;-73
2023/10/28 02:15:34;;;;;;;7.07;2.30;;;9.30;99.90;;;;;;482467;245;27813;-72
2023/10/28 02:17:35;;;;;;;3.87;2.10;;;9.30;99.90;;;;;;482434;246;27909;-72
2023/10/28 02:19:37;;;;;;;7.67;2.40;;;9.30;99.90;;;;;;482401;246;27927;-72
2023/10/28 02:21:38;;;;;;;3.53;1.93;;;9.30;99.90;;;;;;482482;246;27862;-72
2023/10/28 02:23:39;;;;;;;3.27;2.23;;;9.30;99.90;;;;;;482488;246;27958;-72
2023/10/28 02:25:41;;;;;;;6.30;2.47;;;9.30;99.90;;;;;;482435;246;27943;-71
2023/10/28 02:27:43;;;;;;;4.63;1.90;;;9.30;99.90;;;;;;482405;246;28437;-71
2023/10/28 02:29:44;;;;;;;7.37;2.57;;;9.30;99.90;;;;;;482480;246;27999;-72
2023/10/28 02:31:45;;;;;;;15.87;2.27;;;9.30;99.90;;;;;;482476;246;28008;-72
2023/10/28 02:33:46;;;;;;;3.57;1.83;;;9.30;99.90;;;;;;482484;246;27883;-72
2023/10/28 02:35:48;;;;;;;3.80;2.17;;;9.30;99.90;;;;;;482467;246;28332;-71
2023/10/28 02:37:49;;;;;;;10.00;2.27;;;9.30;99.90;;;;;;482449;246;28473;-71
2023/10/28 02:39:50;;;;;;;10.53;2.20;;;9.30;99.90;;;;;;482467;246;28306;-71
2023/10/28 02:41:51;;;;;;;5.33;2.00;;;9.30;99.90;;;;;;482436;246;28394;-72
2023/10/28 02:43:53;;;;;;;6.73;2.30;;;9.30;99.90;;;;;;482466;246;28029;-72
2023/10/28 02:45:54;;;;;;;7.03;2.30;;;9.40;99.90;;;;;;482410;246;27909;-72
2023/10/28 02:47:55;;;;;;;8.53;2.57;;;9.40;99.90;;;;;;482498;246;27755;-72
2023/10/28 02:49:56;;;;;;;6.50;2.23;;;9.30;99.90;;;;;;482477;246;27737;-71
2023/10/28 02:51:58;;;;;;;6.80;1.97;;;9.40;99.90;;;;;;482492;246;27909;-72
2023/10/28 02:53:59;;;;;;;6.63;2.30;;;9.40;99.90;;;;;;482485;246;27937;-72
2023/10/28 02:56:00;;;;;;;4.07;1.90;;;9.40;99.90;;;;;;482485;246;27809;-71
2023/10/28 02:58:01;;;;;;;8.63;2.33;;;9.40;99.90;;;;;;482429;246;27993;-72
2023/10/28 03:00:06;;;;;;;5.10;2.27;;;9.30;99.90;;;;;;482438;246;27639;-72
2023/10/28 03:02:04;;;;;;;6.70;2.20;;;9.40;99.90;;;;;;482384;246;28044;-72
2023/10/28 03:04:05;;;;;;;7.37;2.63;;;9.30;99.90;;;;;;482412;246;27961;-72
2023/10/28 03:06:06;;;;;;;8.60;2.70;;;9.30;99.90;;;;;;482420;246;27864;-71
2023/10/28 03:08:08;;;;;;;7.10;2.00;;;9.30;99.90;;;;;;482413;246;27783;-72
2023/10/28 03:10:10;;;;;;;4.40;2.27;;;9.30;99.90;;;;;;482420;246;27378;-71
2023/10/28 03:12:12;;;;;;;4.43;2.13;;;9.30;99.90;;;;;;482399;246;28478;-72
2023/10/28 03:14:11;;;;;;;6.33;2.10;;;9.30;99.90;;;;;;482380;246;28542;-71
2023/10/28 03:16:13;;;;;;;7.37;2.03;;;9.30;99.90;;;;;;482436;246;28229;-72
2023/10/28 03:18:14;;;;;;;3.40;2.40;;;9.30;99.90;;;;;;482420;246;28191;-73
2023/10/28 03:20:19;;;;;;;12.77;2.70;;;9.30;99.90;;;;;;482400;246;28219;-72
2023/10/28 03:22:16;;;;;;;4.67;2.10;;;9.30;99.90;;;;;;482415;246;27989;-72
2023/10/28 03:24:18;;;;;;;7.30;2.57;;;9.30;99.90;;;;;;482319;246;28069;-72
2023/10/28 03:26:19;;;;;;;6.33;2.50;;;9.30;99.90;;;;;;482470;246;27847;-72
2023/10/28 03:28:21;;;;;;;11.13;2.50;;;9.30;99.90;;;;;;482413;246;27914;-72
2023/10/28 03:30:21;;;;;;;5.23;2.67;;;9.30;99.90;;;;;;482429;246;27753;-72
2023/10/28 03:32:23;;;;;;;9.90;2.40;;;9.30;99.90;;;;;;482464;246;27756;-72
2023/10/28 03:34:24;;;;;;;12.90;3.27;;;9.40;99.90;;;;;;482502;246;27810;-74
2023/10/28 03:36:25;;;;;;;7.83;2.30;;;9.30;99.90;;;;;;482416;246;27394;-72
2023/10/28 03:38:26;;;;;;;14.23;2.93;;;9.30;99.90;;;;;;482428;246;27645;-72
2023/10/28 03:40:28;;;;;;;10.13;2.43;;;9.40;99.90;;;;;;482421;246;27702;-71
2023/10/28 03:42:29;;;;;;;7.17;2.20;;;9.30;99.90;;;;;;482412;246;27739;-72
2023/10/28 03:44:31;;;;;;;5.23;2.43;;;9.40;99.90;;;;;;482452;246;28388;-73
2023/10/28 03:46:31;;;;;;;11.00;2.27;;;9.30;99.90;;;;;;482428;246;28458;-72
2023/10/28 03:48:33;;;;;;;8.23;2.20;;;9.40;99.90;;;;;;482429;246;28428;-71
2023/10/28 03:50:35;;;;;;;8.90;2.30;;;9.30;99.90;;;;;;482416;246;30288;-72
2023/10/28 03:52:35;;;;;;;9.13;2.93;;;9.40;99.90;;;;;;482407;246;28452;-71
2023/10/28 03:54:36;;;;;;;7.30;2.50;;;9.40;99.90;;;;;;482417;246;27623;-71
2023/10/28 03:56:38;;;;;;;7.23;2.33;;;9.40;99.90;;;;;;482288;246;27896;-71
2023/10/28 03:58:39;;;;;;;4.10;1.97;;;9.30;99.90;;;;;;482411;246;27976;-72
2023/10/28 04:00:40;;;;;;;5.00;2.37;;;9.30;99.90;;;;;;482419;246;27970;-73
2023/10/28 04:02:41;;;;;;;7.13;2.13;;;9.40;99.90;;;;;;482472;246;27868;-71
2023/10/28 04:04:43;;;;;;;5.03;2.60;;;9.40;99.90;;;;;;482475;246;27978;-72
2023/10/28 04:06:44;;;;;;;9.33;2.97;;;9.30;99.90;;;;;;482469;246;27883;-72
2023/10/28 04:08:45;;;;;;;10.17;2.40;;;9.30;99.90;;;;;;482388;246;27886;-72
2023/10/28 04:10:46;;;;;;;13.60;2.33;;;9.30;99.90;;;;;;482416;246;28003;-73
2023/10/28 04:12:48;;;;;;;9.00;2.90;;;9.30;99.90;;;;;;482410;246;27885;-72
2023/10/28 04:14:49;;;;;;;8.50;2.70;;;9.40;99.90;;;;;;482423;246;27909;-71
2023/10/28 04:16:50;;;;;;;11.57;3.07;;;9.40;99.90;;;;;;482428;246;27900;-72
2023/10/28 04:18:52;;;;;;;4.43;2.03;;;9.40;99.90;;;;;;482437;246;28008;-72
2023/10/28 04:20:53;;;;;;;7.20;2.30;;;9.40;99.90;;;;;;482445;246;28507;-72
2023/10/28 04:22:54;;;;;;;6.93;2.40;;;9.30;99.90;;;;;;482449;246;28447;-72
2023/10/28 04:24:55;;;;;;;9.57;2.20;;;9.30;99.90;;;;;;482449;246;28282;-72
2023/10/28 04:26:56;;;;;;;8.63;2.63;;;9.30;99.90;;;;;;482419;246;28321;-72
2023/10/28 04:29:00;;;;;;;9.77;2.80;;;9.40;99.90;;;;;;482488;246;27915;-72
2023/10/28 04:31:02;;;;;;;13.80;3.20;;;9.40;99.90;;;;;;482350;246;27912;-71
2023/10/28 04:33:04;;;;;;;6.00;2.60;;;9.40;99.90;;;;;;482504;246;27947;-74
2023/10/28 04:35:05;;;;;;;11.13;2.90;;;9.40;99.90;;;;;;482507;246;27554;-72
2023/10/28 04:37:05;;;;;;;16.20;2.87;;;9.40;99.90;;;;;;482410;246;27539;-72
2023/10/28 04:39:07;;;;;;;5.97;2.77;;;9.40;99.90;;;;;;482439;246;27835;-72
2023/10/28 04:41:08;;;;;;;8.47;2.10;;;9.40;99.90;;;;;;482443;246;27749;-72
2023/10/28 04:43:09;;;;;;;6.00;2.50;;;9.40;99.90;;;;;;482493;246;28013;-72
2023/10/28 04:45:10;;;;;;;2.47;1.83;;;9.40;99.90;;;;;;482485;246;28412;-72
2023/10/28 04:47:12;;;;;;;3.67;1.77;;;9.40;99.90;;;;;;482476;246;28290;-73
2023/10/28 04:49:13;;;;;;;8.60;2.70;;;9.40;99.90;;;;;;482489;246;28224;-74
2023/10/28 04:51:15;;;;;;;8.23;3.00;;;9.40;99.90;;;;;;482466;246;28168;-72
2023/10/28 04:53:15;;;;;;;7.97;2.17;;;9.40;99.90;;;;;;482416;246;27823;-72
2023/10/28 04:55:17;;;;;;;13.20;3.03;;;9.40;99.90;;;;;;482392;246;27976;-72
2023/10/28 04:57:18;;;;;;;5.13;2.43;;;9.40;99.90;;;;;;482385;246;28026;-72
2023/10/28 04:59:19;;;;;;;6.83;2.77;;;9.40;99.90;;;;;;482445;246;27879;-73
2023/10/28 05:01:21;;;;;;;3.90;2.20;;;9.40;99.90;;;;;;482457;246;27864;-72
2023/10/28 05:03:22;;;;;;;6.20;2.27;;;9.40;99.90;;;;;;482439;246;27783;-72
2023/10/28 05:05:24;;;;;;;8.43;2.40;;;9.40;99.90;;;;;;482471;246;27927;-72
2023/10/28 05:07:24;;;;;;;5.23;2.23;;;9.40;99.90;;;;;;482415;246;27929;-72
2023/10/28 05:09:25;;;;;;;7.07;3.27;;;9.40;99.90;;;;;;482500;246;28049;-74
2023/10/28 05:11:27;;;;;;;8.70;2.13;;;9.40;99.90;;;;;;482496;246;27999;-72
2023/10/28 05:13:28;;;;;;;6.57;2.47;;;9.40;99.90;;;;;;482462;246;27771;-72
2023/10/28 05:15:29;;;;;;;7.17;2.10;;;9.40;99.90;;;;;;482515;246;27974;-72
2023/10/28 05:17:31;;;;;;;7.30;2.50;;;9.40;99.90;;;;;;482498;246;27884;-73
2023/10/28 05:19:32;;;;;;;7.00;2.50;;;9.40;99.90;;;;;;482414;246;27875;-72
2023/10/28 05:21:33;;;;;;;4.40;2.30;;;9.40;99.90;;;;;;482489;246;28341;-72
2023/10/28 05:23:34;;;;;;;8.23;2.20;;;9.40;99.90;;;;;;482421;246;28274;-72
2023/10/28 05:25:35;;;;;;;10.90;2.23;;;9.40;99.90;;;;;;482416;246;28547;-72
2023/10/28 05:27:37;;;;;;;5.93;2.40;;;9.40;99.90;;;;;;482437;246;29561;-72
2023/10/28 05:29:38;;;;;;;7.47;1.90;;;9.40;99.90;;;;;;482449;246;27643;-72
2023/10/28 05:31:39;;;;;;;8.37;2.23;;;9.40;99.90;;;;;;482417;246;27761;-72
2023/10/28 05:33:40;;;;;;;7.53;1.90;;;9.40;99.90;;;;;;482477;246;27876;-72
2023/10/28 05:35:42;;;;;;;6.57;2.40;;;9.40;99.90;;;;;;482224;246;27852;-72
2023/10/28 05:37:43;;;;;;;6.70;3.67;;;9.40;99.90;;;;;;482448;246;28021;-72
2023/10/28 05:39:44;;;;;;;5.13;2.47;;;9.40;99.90;;;;;;482412;246;27618;-71
2023/10/28 05:41:45;;;;;;;5.77;2.27;;;9.40;99.90;;;;;;482416;246;28009;-71
2023/10/28 05:43:48;;;;;;;5.70;2.20;;;9.40;99.90;;;;;;482439;246;27608;-72
2023/10/28 05:45:48;;;;;;;7.90;2.10;;;9.40;99.90;;;;;;482477;246;27930;-73
2023/10/28 05:47:49;;;;;;;6.60;2.43;;;9.40;99.90;;;;;;482434;246;27872;-72
2023/10/28 05:49:50;;;;;;;4.33;1.90;;;9.40;99.90;;;;;;482425;246;27788;-72
2023/10/28 05:51:52;;;;;;;6.13;2.30;;;9.40;99.90;;;;;;482426;246;27893;-72
2023/10/28 05:53:53;;;;;;;7.83;2.70;;;9.40;99.90;;;;;;482502;246;27880;-72
2023/10/28 05:55:54;;;;;;;4.50;2.17;;;9.50;99.90;;;;;;482488;246;27870;-73
2023/10/28 05:57:55;;;;;;;9.20;2.03;;;9.50;99.90;;;;;;482496;246;28614;-72
2023/10/28 05:59:57;;;;;;;4.77;1.87;;;9.40;99.90;;;;;;482470;246;28287;-73
2023/10/28 06:01:58;;;;;;;4.87;2.47;;;9.50;99.90;;;;;;482463;246;28450;-72
2023/10/28 06:03:59;;;;;;;5.13;1.93;;;9.40;99.90;;;;;;482506;246;28500;-71
2023/10/28 06:06:00;;;;;;;4.67;2.10;;;9.40;99.90;;;;;;482425;246;28422;-73
2023/10/28 06:08:02;;;;;;;9.03;3.03;;;9.40;99.90;;;;;;482497;246;27892;-72
2023/10/28 06:10:07;;;;;;;5.53;2.33;;;9.40;99.90;;;;;;482409;246;27627;-71
2023/10/28 06:12:04;;;;;;;12.40;2.77;;;9.40;99.90;;;;;;482411;246;27917;-73
2023/10/28 06:14:05;;;;;;;3.90;2.00;;;9.40;99.90;;;;;;482431;246;27924;-72
2023/10/28 06:16:07;;;;;;;5.60;2.07;;;9.40;99.90;;;;;;482471;246;27920;-72
2023/10/28 06:18:08;;;;;;;5.70;2.63;;;9.40;99.90;;;;;;482463;246;27910;-71
2023/10/28 06:20:09;;;;;;;9.90;2.33;;;9.40;99.90;;;;;;482471;246;27899;-72
2023/10/28 06:22:13;;;;;;;6.83;2.40;;;9.40;99.90;;;;;;482436;246;27803;-73
2023/10/28 06:24:14;;;;;;;5.70;2.40;;;9.40;99.90;;;;;;482282;246;28022;-72
2023/10/28 06:26:16;;;;;;;9.33;2.57;;;9.40;99.90;;;;;;482429;246;27760;-72
2023/10/28 06:28:18;;;;;;;4.73;1.83;;;9.40;99.90;;;;;;482492;246;28039;-71
2023/10/28 06:30:18;;;;;;;7.20;2.73;;;9.40;99.90;;;;;;482417;246;27907;-72
2023/10/28 06:32:19;;;;;;;6.50;2.40;;;9.40;99.90;;;;;;482435;246;27742;-71
2023/10/28 06:34:21;;;;;;;5.20;2.50;;;9.40;99.90;;;;;;482433;246;27438;-72
2023/10/28 06:36:22;;;;;;;6.27;2.03;;;9.50;99.90;;;;;;482423;246;27827;-72
2023/10/28 06:38:25;;;;;;;7.13;2.17;;;9.50;99.90;;;;;;482399;246;28030;-72
2023/10/28 06:40:28;;;;;;;6.07;2.30;;;9.40;99.90;;;;;;482433;244;28173;-73
2023/10/28 06:42:27;;;;;;;8.17;2.20;;;9.40;99.90;;;;;;482473;246;27972;-71
2023/10/28 06:44:29;;;;;;;4.97;1.90;;;9.40;99.90;;;;;;482473;246;27927;-71
2023/10/28 06:46:30;;;;;;;4.63;2.10;;;9.40;99.90;;;;;;482478;246;27860;-72
2023/10/28 06:48:32;;;;;;;3.83;2.17;;;9.40;99.90;;;;;;482469;246;28596;-72
2023/10/28 06:50:32;;;;;;;7.43;1.80;;;9.40;99.90;;;;;;482474;246;29192;-72
2023/10/28 06:52:34;;;;;;;3.30;1.77;;;9.40;99.90;;;;;;482460;246;28118;-71
2023/10/28 06:54:35;;;;;;;11.80;2.70;;;9.50;99.90;;;;;;482491;246;28493;-72
2023/10/28 06:56:36;;;;;;;4.97;2.13;;;9.50;99.90;;;;;;482486;246;28469;-72
2023/10/28 06:58:37;;;;;;;4.67;2.30;;;9.50;99.90;;;;;;482490;246;27784;-74
2023/10/28 07:00:39;;;;;;;9.43;1.93;;;9.50;99.90;;;;;;482440;245;27887;-73
2023/10/28 07:02:40;;;;;;;6.83;2.50;;;9.50;99.90;;;;;;482425;246;27765;-72
2023/10/28 07:04:41;;;;;;;6.50;2.40;;;9.50;99.90;;;;;;482431;246;27650;-72
2023/10/28 07:06:45;;;;;;;8.33;2.10;;;9.60;99.90;;;;;;482403;246;27602;-72
2023/10/28 07:08:44;;;;;;;5.40;2.13;;;9.60;99.90;;;;;;482405;246;27916;-72
2023/10/28 07:10:45;;;;;;;8.63;2.47;;;9.60;99.90;;;;;;482491;246;27430;-73
2023/10/28 07:12:46;;;;;;;10.47;2.40;;;9.60;99.90;;;;;;482419;246;27975;-72
2023/10/28 07:14:47;;;;;;;10.27;2.03;;;9.60;99.90;;;;;;482429;246;27995;-72
2023/10/28 07:16:49;;;;;;;6.83;2.47;;;9.60;99.90;;;;;;482437;246;27640;-71
2023/10/28 07:18:51;;;;;;;5.67;2.27;;;9.60;99.90;;;;;;482470;246;27706;-71
2023/10/28 07:20:52;;;;;;;4.63;2.10;;;9.50;99.90;;;;;;482425;246;27866;-72
2023/10/28 07:22:54;;;;;;;9.23;2.30;;;9.50;99.90;;;;;;482410;246;27971;-71
2023/10/28 07:24:56;;;;;;;5.93;2.43;;;9.60;99.90;;;;;;482405;246;28144;-73
2023/10/28 07:26:57;;;;;;;6.97;2.17;;;9.60;99.90;;;;;;482349;246;28234;-72
2023/10/28 07:28:59;;;;;;;4.03;2.20;;;9.60;99.90;;;;;;482341;246;28457;-72
2023/10/28 07:31:00;;;;;;;9.43;2.73;;;9.70;99.90;;;;;;482314;246;28414;-71
2023/10/28 07:33:02;;;;;;;9.57;2.40;;;9.80;99.90;;;;;;482359;246;28391;-72
2023/10/28 07:35:06;;;;;;;8.30;2.83;;;9.70;99.90;;;;;;482406;246;27694;-73
2023/10/28 07:37:05;;;;;;;5.40;2.50;;;9.70;99.90;;;;;;482438;246;27989;-72
2023/10/28 07:39:06;;;;;;;7.50;3.00;;;9.70;99.90;;;;;;482436;246;27935;-72
2023/10/28 07:41:07;;;;;;;6.63;3.83;;;9.70;99.90;;;;;;482457;246;27911;-73
2023/10/28 07:43:11;;;;;;;9.30;3.40;;;9.70;99.90;;;;;;482427;246;27999;-73
2023/10/28 07:45:13;;;;;;;8.00;3.17;;;9.70;99.90;;;;;;482432;246;28151;-72
2023/10/28 07:47:13;;;;;;;7.40;2.57;;;9.80;99.90;;;;;;482361;246;28316;-72
2023/10/28 07:49:14;;;;;;;5.73;2.67;;;9.80;99.90;;;;;;482476;246;28317;-72
2023/10/28 07:51:17;;;;;;;6.07;2.93;;;9.80;99.90;;;;;;482455;246;28255;-73
2023/10/28 07:53:18;;;;;;;9.17;3.10;;;9.80;99.90;;;;;;482410;246;28513;-72
2023/10/28 07:55:21;;;;;;;7.40;2.80;;;9.70;99.90;;;;;;482429;246;28256;-72
2023/10/28 07:57:22;;;;;;;8.00;2.50;;;9.80;99.90;;;;;;482414;246;27845;-72
2023/10/28 07:59:24;;;;;;;8.60;2.77;;;9.80;99.90;;;;;;482477;246;28047;-72
2023/10/28 08:01:25;;;;;;;6.23;1.90;;;9.80;99.90;;;;;;482479;246;27732;-73
2023/10/28 08:03:26;;;;;;;5.47;2.13;;;9.80;99.90;;;;;;482483;246;28910;-72
2023/10/28 08:05:28;;;;;;;6.37;2.17;;;9.80;99.90;;;;;;482442;246;29156;-74
2023/10/28 08:07:29;;;;;;;9.83;2.20;;;9.90;99.90;;;;;;482409;246;28468;-72
2023/10/28 08:09:31;;;;;;;6.10;2.33;;;9.80;99.90;;;;;;482415;246;28244;-72
2023/10/28 08:11:32;;;;;;;8.30;2.30;;;9.80;99.90;;;;;;482478;246;28446;-72
2023/10/28 08:13:33;;;;;;;8.43;2.37;;;9.80;99.90;;;;;;482470;246;28417;-72
2023/10/28 08:15:35;;;;;;;6.07;2.40;;;9.90;99.90;;;;;;482430;246;28271;-72
2023/10/28 08:17:36;;;;;;;6.10;2.60;;;9.90;99.90;;;;;;482483;246;27852;-73
2023/10/28 08:19:37;;;;;;;10.97;2.30;;;9.90;99.90;;;;;;482463;246;27929;-72
2023/10/28 08:21:38;;;;;;;4.10;1.90;;;9.90;99.90;;;;;;482386;246;27903;-72
2023/10/28 08:23:40;;;;;;;5.27;2.23;;;9.90;99.90;;;;;;482424;246;27584;-72
2023/10/28 08:25:41;;;;;;;8.13;2.17;;;9.90;99.90;;;;;;482415;246;27642;-72
2023/10/28 08:27:43;;;;;;;3.70;2.27;;;9.90;99.90;;;;;;482403;246;27878;-72
2023/10/28 08:29:46;;;;;;;9.00;2.00;;;10.00;99.90;;;;;;482477;246;27942;-72
2023/10/28 08:31:48;;;;;;;6.00;2.20;;;10.00;99.90;;;;;;482390;246;28334;-72
2023/10/28 08:33:50;;;;;;;6.23;2.10;;;10.10;99.90;;;;;;482401;246;28154;-72
2023/10/28 08:35:51;;;;;;;7.00;2.17;;;10.20;99.90;;;;;;482406;246;27921;-73
2023/10/28 08:37:51;;;;;;;7.33;3.17;;;10.10;99.90;;;;;;482429;246;27884;-72
2023/10/28 08:39:53;;;;;;;9.20;2.50;;;10.20;99.90;;;;;;482221;246;27898;-72
2023/10/28 08:41:54;;;;;;;6.17;2.57;;;10.20;99.90;;;;;;482438;246;27821;-72
2023/10/28 08:43:55;;;;;;;10.23;2.60;;;10.20;99.90;;;;;;482456;246;27754;-72
2023/10/28 08:45:56;;;;;;;5.00;2.17;;;10.30;99.90;;;;;;482483;246;28423;-72
2023/10/28 08:47:58;;;;;;;5.60;2.33;;;10.30;99.90;;;;;;482465;246;27982;-72
2023/10/28 08:49:59;;;;;;;8.53;2.03;;;10.40;99.90;;;;;;482452;246;27912;-72
2023/10/28 08:52:00;;;;;;;5.63;2.60;;;10.50;99.90;;;;;;482437;245;29008;-72
2023/10/28 08:54:04;;;;;;;4.77;2.50;;;10.60;99.90;;;;;;482454;246;28596;-72
2023/10/28 08:56:03;;;;;;;7.23;1.77;;;10.60;99.90;;;;;;482440;246;28362;-72
2023/10/28 08:58:04;;;;;;;5.57;2.10;;;10.70;99.90;;;;;;482442;246;27849;-71
2023/10/28 09:00:14;;;;;;;7.20;2.40;;;10.80;99.90;;;;;;482444;246;28025;-72
2023/10/28 09:02:08;;;;;;;4.10;3.00;;;10.90;99.90;;;;;;482439;246;27908;-73
2023/10/28 09:04:08;;;;;;;4.13;2.50;;;11.00;99.90;;;;;;482436;246;27983;-72
2023/10/28 09:06:09;;;;;;;10.00;2.50;;;11.00;99.90;;;;;;481673;246;28148;-73
2023/10/28 09:08:10;;;;;;;5.57;1.93;;;10.90;99.90;;;;;;482380;246;28069;-72
2023/10/28 09:10:12;;;;;;;8.37;2.20;;;10.90;99.90;;;;;;482387;246;27973;-72
2023/10/28 09:12:13;;;;;;;6.20;2.13;;;10.90;99.90;;;;;;482388;246;28215;-72
2023/10/28 09:14:14;;;;;;;10.13;2.70;;;11.00;99.90;;;;;;482444;246;27849;-72
2023/10/28 09:16:15;;;;;;;12.40;2.53;;;11.00;99.90;;;;;;482427;246;28524;-73
2023/10/28 09:18:16;;;;;;;8.07;2.20;;;11.00;99.90;;;;;;482432;246;28314;-72
2023/10/28 09:20:18;;;;;;;4.43;2.20;;;11.10;99.90;;;;;;482413;246;27950;-72
2023/10/28 09:22:20;;;;;;;6.87;2.23;;;11.00;99.90;;;;;;482453;246;28118;-72
2023/10/28 09:24:21;;;;;;;8.53;2.00;;;11.10;99.90;;;;;;482414;246;28107;-72
2023/10/28 09:26:21;;;;;;;4.13;2.00;;;11.10;99.90;;;;;;482455;246;28022;-72
2023/10/28 09:28:25;;;;;;;9.90;2.80;;;11.10;99.90;;;;;;482422;246;28035;-72
2023/10/28 09:30:24;;;;;;;8.10;2.30;;;11.10;99.90;;;;;;482425;246;28081;-72
2023/10/28 09:32:26;;;;;;;19.63;2.73;;;11.20;99.90;;;;;;482420;246;28167;-72
2023/10/28 09:34:26;;;;;;;11.30;3.20;;;11.20;99.90;;;;;;482443;246;28068;-72
2023/10/28 09:36:28;;;;;;;5.60;2.43;;;11.30;99.90;;;;;;482453;246;28509;-72
2023/10/28 09:38:29;;;;;;;7.73;2.50;;;11.40;99.90;;;;;;482449;246;28609;-73
2023/10/28 09:40:30;;;;;;;7.00;2.10;;;11.50;99.90;;;;;;482473;246;28561;-71
2023/10/28 09:42:31;;;;;;;15.73;3.10;;;11.60;99.90;;;;;;482450;246;28516;-72
2023/10/28 09:44:34;;;;;;;9.23;2.77;;;11.70;99.90;;;;;;482447;246;28205;-72
2023/10/28 09:46:35;;;;;;;9.40;2.83;;;11.70;99.90;;;;;;482435;246;28110;-72
2023/10/28 09:48:35;;;;;;;10.33;2.13;;;11.70;99.90;;;;;;482430;246;28150;-73
2023/10/28 09:50:38;;;;;;;12.00;2.70;;;11.60;99.90;;;;;;482459;246;28236;-72
2023/10/28 09:52:38;;;;;;;7.20;2.50;;;11.60;99.90;;;;;;482432;246;28198;-72
2023/10/28 09:54:39;;;;;;;10.87;2.83;;;11.60;99.90;;;;;;482496;246;28002;-72
2023/10/28 09:56:40;;;;;;;8.03;2.30;;;11.60;99.90;;;;;;482481;246;28403;-72
2023/10/28 09:58:41;;;;;;;8.87;2.40;;;11.60;99.90;;;;;;482472;246;28320;-72
2023/10/28 10:00:43;;;;;;;9.27;2.17;;;11.60;99.90;;;;;;482474;246;28712;-72
2023/10/28 10:02:44;;;;;;;8.73;2.60;;;11.70;99.90;;;;;;482455;246;28618;-72
2023/10/28 10:04:47;;;;;;;7.53;2.50;;;11.70;99.90;;;;;;482442;246;28181;-74
2023/10/28 10:06:47;;;;;;;8.57;2.60;;;11.60;99.90;;;;;;482383;246;28212;-71
2023/10/28 10:08:48;;;;;;;10.67;3.03;;;11.60;99.90;;;;;;482424;246;28371;-72
2023/10/28 10:10:49;;;;;;;7.10;2.93;;;11.50;99.90;;;;;;482419;246;28198;-72
2023/10/28 10:12:54;;;;;;;9.13;3.20;;;11.50;99.90;;;;;;482398;246;28374;-71
2023/10/28 10:14:55;;;;;;;8.30;3.07;;;11.50;99.90;;;;;;482441;246;27936;-73
2023/10/28 10:16:54;;;;;;;9.00;2.73;;;11.60;99.90;;;;;;482390;246;28168;-72
2023/10/28 10:18:56;;;;;;;7.00;2.60;;;11.60;99.90;;;;;;482449;246;28192;-72
2023/10/28 10:20:57;;;;;;;10.47;2.37;;;11.60;99.90;;;;;;482380;246;28644;-71
2023/10/28 10:23:01;;;;;;;10.63;2.90;;;11.60;99.90;;;;;;482455;246;28629;-72
2023/10/28 10:25:02;;;;;;;8.30;3.00;;;11.60;99.90;;;;;;482468;246;28246;-71
2023/10/28 10:27:05;;;;;;;6.63;2.23;;;11.70;99.90;;;;;;482441;246;28295;-72
2023/10/28 10:29:08;;;;;;;8.67;2.50;;;11.60;99.90;;;;;;482437;246;28420;-72
2023/10/28 10:31:07;;;;;;;10.40;2.77;;;11.60;99.90;;;;;;482420;246;28243;-72
2023/10/28 10:33:08;;;;;;;6.00;2.80;;;11.70;99.90;;;;;;482410;246;28246;-72
2023/10/28 10:35:10;;;;;;;10.03;2.40;;;11.70;99.90;;;;;;482445;246;28249;-73
2023/10/28 10:37:13;;;;;;;6.47;2.70;;;11.70;99.90;;;;;;482437;246;28127;-72